sensor_id;sensor_type;location;lat;lon;timestamp;temperature;humidity
4050;DHT22;2039;50.894;6.888;2023-02-22T00:06:14;6.70;99.90
4050;DHT22;2039;50.894;6.888;2023-02-22T00:08:49;6.70;99.90
4050;DHT22;2039;50.894;6.888;2023-02-22T00:14:55;6.70;99.90
4050;DHT22;2039;50.894;6.888;2023-02-22T00:17:36;6.70;99.90
4050;DHT22;2039;50.894;6.888;2023-02-22T00:20:21;6.70;99.90
4050;DHT22;2039;50.894;6.888;2023-02-22T00:22:50;6.70;99.90
4050;DHT22;2039;50.894;6.888;2023-02-22T00:25:33;6.70;99.90
4050;DHT22;2039;50.894;6.888;2023-02-22T00:28:01;6.70;99.90
4050;DHT22;2039;50.894;6.888;2023-02-22T00:30:37;6.70;99.90
4050;DHT22;2039;50.894;6.888;2023-02-22T00:33:37;6.70;99.90
4050;DHT22;2039;50.894;6.888;2023-02-22T00:36:17;6.70;99.90
4050;DHT22;2039;50.894;6.888;2023-02-22T00:38:49;6.70;99.90
4050;DHT22;2039;50.894;6.888;2023-02-22T00:41:33;6.70;99.90
4050;DHT22;2039;50.894;6.888;2023-02-22T00:47:31;6.50;99.90
4050;DHT22;2039;50.894;6.888;2023-02-22T00:50:07;6.50;99.90
4050;DHT22;2039;50.894;6.888;2023-02-22T00:53:03;6.50;99.90
4050;DHT22;2039;50.894;6.888;2023-02-22T00:55:52;6.50;99.90
4050;DHT22;2039;50.894;6.888;2023-02-22T01:02:24;6.40;99.90
4050;DHT22;2039;50.894;6.888;2023-02-22T01:14:54;6.40;99.90
4050;DHT22;2039;50.894;6.888;2023-02-22T01:18:14;6.40;99.90
4050;DHT22;2039;50.894;6.888;2023-02-22T01:20:40;6.40;99.90
4050;DHT22;2039;50.894;6.888;2023-02-22T01:23:19;6.50;99.90
4050;DHT22;2039;50.894;6.888;2023-02-22T01:26:55;6.40;99.90
4050;DHT22;2039;50.894;6.888;2023-02-22T01:33:04;6.40;99.90
4050;DHT22;2039;50.894;6.888;2023-02-22T01:36:16;6.40;99.90
4050;DHT22;2039;50.894;6.888;2023-02-22T01:54:02;6.40;99.90
4050;DHT22;2039;50.894;6.888;2023-02-22T02:10:23;6.50;99.90
4050;DHT22;2039;50.894;6.888;2023-02-22T02:16:02;6.60;99.90
4050;DHT22;2039;50.894;6.888;2023-02-22T02:47:34;6.50;99.90
4050;DHT22;2039;50.894;6.888;2023-02-22T02:50:51;6.50;99.90
4050;DHT22;2039;50.894;6.888;2023-02-22T02:53:48;6.40;99.90
4050;DHT22;2039;50.894;6.888;2023-02-22T02:56:55;6.50;99.90
4050;DHT22;2039;50.894;6.888;2023-02-22T02:59:52;6.50;99.90
4050;DHT22;2039;50.894;6.888;2023-02-22T03:02:45;6.40;99.90
4050;DHT22;2039;50.894;6.888;2023-02-22T03:13:06;6.50;99.90
4050;DHT22;2039;50.894;6.888;2023-02-22T03:24:47;6.40;99.90
4050;DHT22;2039;50.894;6.888;2023-02-22T03:28:02;6.40;99.90
4050;DHT22;2039;50.894;6.888;2023-02-22T03:34:53;6.30;99.90
4050;DHT22;2039;50.894;6.888;2023-02-22T03:37:52;6.20;99.90
4050;DHT22;2039;50.894;6.888;2023-02-22T03:40:32;6.20;99.90
4050;DHT22;2039;50.894;6.888;2023-02-22T03:43:26;6.20;99.90
4050;DHT22;2039;50.894;6.888;2023-02-22T03:45:57;6.10;99.90
4050;DHT22;2039;50.894;6.888;2023-02-22T03:51:41;6.20;99.90
4050;DHT22;2039;50.894;6.888;2023-02-22T03:54:20;6.20;99.90
4050;DHT22;2039;50.894;6.888;2023-02-22T03:57:36;6.20;99.90
4050;DHT22;2039;50.894;6.888;2023-02-22T04:00:35;6.20;99.90
4050;DHT22;2039;50.894;6.888;2023-02-22T04:04:06;6.10;99.90
4050;DHT22;2039;50.894;6.888;2023-02-22T04:08:48;6.10;99.90
4050;DHT22;2039;50.894;6.888;2023-02-22T04:11:26;6.10;99.90
4050;DHT22;2039;50.894;6.888;2023-02-22T04:14:12;6.10;99.90
4050;DHT22;2039;50.894;6.888;2023-02-22T04:17:02;6.10;99.90
4050;DHT22;2039;50.894;6.888;2023-02-22T04:20:00;6.10;99.90
4050;DHT22;2039;50.894;6.888;2023-02-22T04:22:46;6.10;99.90
4050;DHT22;2039;50.894;6.888;2023-02-22T04:25:32;6.10;99.90
4050;DHT22;2039;50.894;6.888;2023-02-22T04:28:09;6.10;99.90
4050;DHT22;2039;50.894;6.888;2023-02-22T04:30:53;6.10;99.90
4050;DHT22;2039;50.894;6.888;2023-02-22T04:33:19;6.10;99.90
4050;DHT22;2039;50.894;6.888;2023-02-22T04:35:48;6.10;99.90
4050;DHT22;2039;50.894;6.888;2023-02-22T04:38:14;6.10;99.90
4050;DHT22;2039;50.894;6.888;2023-02-22T04:40:47;6.00;99.90
4050;DHT22;2039;50.894;6.888;2023-02-22T04:43:28;6.00;99.90
4050;DHT22;2039;50.894;6.888;2023-02-22T04:45:59;5.90;99.90
4050;DHT22;2039;50.894;6.888;2023-02-22T04:48:31;6.00;99.90
4050;DHT22;2039;50.894;6.888;2023-02-22T04:50:59;6.00;99.90
4050;DHT22;2039;50.894;6.888;2023-02-22T04:53:31;6.00;99.90
4050;DHT22;2039;50.894;6.888;2023-02-22T04:56:10;6.00;99.90
4050;DHT22;2039;50.894;6.888;2023-02-22T04:58:55;6.00;99.90
4050;DHT22;2039;50.894;6.888;2023-02-22T05:01:38;6.00;99.90
4050;DHT22;2039;50.894;6.888;2023-02-22T05:04:08;6.10;99.90
4050;DHT22;2039;50.894;6.888;2023-02-22T05:06:50;6.00;99.90
4050;DHT22;2039;50.894;6.888;2023-02-22T05:12:06;6.00;99.90
4050;DHT22;2039;50.894;6.888;2023-02-22T05:14:57;6.00;99.90
4050;DHT22;2039;50.894;6.888;2023-02-22T05:17:33;5.90;99.90
4050;DHT22;2039;50.894;6.888;2023-02-22T05:20:33;6.00;99.90
4050;DHT22;2039;50.894;6.888;2023-02-22T05:23:03;6.00;99.90
4050;DHT22;2039;50.894;6.888;2023-02-22T05:25:30;6.00;99.90
4050;DHT22;2039;50.894;6.888;2023-02-22T05:28:04;6.00;99.90
4050;DHT22;2039;50.894;6.888;2023-02-22T05:30:34;6.00;99.90
4050;DHT22;2039;50.894;6.888;2023-02-22T05:33:00;5.90;99.90
4050;DHT22;2039;50.894;6.888;2023-02-22T05:35:27;5.90;99.90
4050;DHT22;2039;50.894;6.888;2023-02-22T05:37:53;6.00;99.90
4050;DHT22;2039;50.894;6.888;2023-02-22T05:40:22;6.00;99.90
4050;DHT22;2039;50.894;6.888;2023-02-22T05:42:49;5.90;99.90
4050;DHT22;2039;50.894;6.888;2023-02-22T05:45:17;5.90;99.90
4050;DHT22;2039;50.894;6.888;2023-02-22T05:47:43;5.90;99.90
4050;DHT22;2039;50.894;6.888;2023-02-22T05:50:10;5.80;99.90
4050;DHT22;2039;50.894;6.888;2023-02-22T05:52:36;5.80;99.90
4050;DHT22;2039;50.894;6.888;2023-02-22T05:55:03;5.80;99.90
4050;DHT22;2039;50.894;6.888;2023-02-22T05:57:29;5.80;99.90
4050;DHT22;2039;50.894;6.888;2023-02-22T05:59:55;5.80;99.90
4050;DHT22;2039;50.894;6.888;2023-02-22T06:02:21;5.80;99.90
4050;DHT22;2039;50.894;6.888;2023-02-22T06:04:47;5.80;99.90
4050;DHT22;2039;50.894;6.888;2023-02-22T06:07:13;5.70;99.90
4050;DHT22;2039;50.894;6.888;2023-02-22T06:09:39;5.70;99.90
4050;DHT22;2039;50.894;6.888;2023-02-22T06:12:06;5.70;99.90
4050;DHT22;2039;50.894;6.888;2023-02-22T06:14:32;5.70;99.90
4050;DHT22;2039;50.894;6.888;2023-02-22T06:16:59;5.70;99.90
4050;DHT22;2039;50.894;6.888;2023-02-22T06:19:26;5.70;99.90
4050;DHT22;2039;50.894;6.888;2023-02-22T06:21:53;5.70;99.90
4050;DHT22;2039;50.894;6.888;2023-02-22T06:24:20;5.80;99.90
4050;DHT22;2039;50.894;6.888;2023-02-22T06:26:45;5.70;99.90
4050;DHT22;2039;50.894;6.888;2023-02-22T06:29:11;5.70;99.90
4050;DHT22;2039;50.894;6.888;2023-02-22T06:31:37;5.70;99.90
4050;DHT22;2039;50.894;6.888;2023-02-22T06:34:03;5.60;99.90
4050;DHT22;2039;50.894;6.888;2023-02-22T06:36:29;5.60;99.90
4050;DHT22;2039;50.894;6.888;2023-02-22T06:38:59;5.60;99.90
4050;DHT22;2039;50.894;6.888;2023-02-22T06:41:24;5.60;99.90
4050;DHT22;2039;50.894;6.888;2023-02-22T06:43:50;5.60;99.90
4050;DHT22;2039;50.894;6.888;2023-02-22T06:46:16;5.60;99.90
4050;DHT22;2039;50.894;6.888;2023-02-22T06:48:41;5.60;99.90
4050;DHT22;2039;50.894;6.888;2023-02-22T06:51:08;5.60;99.90
4050;DHT22;2039;50.894;6.888;2023-02-22T06:53:34;5.60;99.90
4050;DHT22;2039;50.894;6.888;2023-02-22T06:56:00;5.60;99.90
4050;DHT22;2039;50.894;6.888;2023-02-22T06:58:27;5.60;99.90
4050;DHT22;2039;50.894;6.888;2023-02-22T07:00:56;5.60;99.90
4050;DHT22;2039;50.894;6.888;2023-02-22T07:03:21;5.60;99.90
4050;DHT22;2039;50.894;6.888;2023-02-22T07:05:47;5.60;99.90
4050;DHT22;2039;50.894;6.888;2023-02-22T07:08:13;5.60;99.90
4050;DHT22;2039;50.894;6.888;2023-02-22T07:10:39;5.60;99.90
4050;DHT22;2039;50.894;6.888;2023-02-22T07:13:06;5.60;99.90
4050;DHT22;2039;50.894;6.888;2023-02-22T07:15:33;5.70;99.90
4050;DHT22;2039;50.894;6.888;2023-02-22T07:18:00;5.70;99.90
4050;DHT22;2039;50.894;6.888;2023-02-22T07:20:28;5.70;99.90
4050;DHT22;2039;50.894;6.888;2023-02-22T07:22:54;5.70;99.90
4050;DHT22;2039;50.894;6.888;2023-02-22T07:25:20;5.70;99.90
4050;DHT22;2039;50.894;6.888;2023-02-22T07:27:46;5.70;99.90
4050;DHT22;2039;50.894;6.888;2023-02-22T07:30:22;5.70;99.90
4050;DHT22;2039;50.894;6.888;2023-02-22T07:32:55;5.70;99.90
4050;DHT22;2039;50.894;6.888;2023-02-22T07:35:24;5.70;99.90
4050;DHT22;2039;50.894;6.888;2023-02-22T07:37:51;5.70;99.90
4050;DHT22;2039;50.894;6.888;2023-02-22T07:40:17;5.70;99.90
4050;DHT22;2039;50.894;6.888;2023-02-22T07:45:16;5.80;99.90
4050;DHT22;2039;50.894;6.888;2023-02-22T07:47:42;5.80;99.90
4050;DHT22;2039;50.894;6.888;2023-02-22T07:50:10;5.80;99.90
4050;DHT22;2039;50.894;6.888;2023-02-22T07:52:36;5.90;99.90
4050;DHT22;2039;50.894;6.888;2023-02-22T07:55:02;6.00;99.90
4050;DHT22;2039;50.894;6.888;2023-02-22T07:57:28;6.00;99.90
4050;DHT22;2039;50.894;6.888;2023-02-22T07:59:53;6.00;99.90
4050;DHT22;2039;50.894;6.888;2023-02-22T08:02:20;6.10;99.90
4050;DHT22;2039;50.894;6.888;2023-02-22T08:04:46;6.10;99.90
4050;DHT22;2039;50.894;6.888;2023-02-22T08:07:11;6.20;99.90
4050;DHT22;2039;50.894;6.888;2023-02-22T08:09:37;6.40;99.90
4050;DHT22;2039;50.894;6.888;2023-02-22T08:12:03;6.50;99.90
4050;DHT22;2039;50.894;6.888;2023-02-22T08:14:28;6.40;99.90
4050;DHT22;2039;50.894;6.888;2023-02-22T08:16:54;6.40;99.90
4050;DHT22;2039;50.894;6.888;2023-02-22T08:19:20;6.40;99.90
4050;DHT22;2039;50.894;6.888;2023-02-22T08:21:47;6.50;99.90
4050;DHT22;2039;50.894;6.888;2023-02-22T08:24:12;6.60;99.90
4050;DHT22;2039;50.894;6.888;2023-02-22T08:26:44;6.60;99.90
4050;DHT22;2039;50.894;6.888;2023-02-22T08:29:09;6.70;99.90
4050;DHT22;2039;50.894;6.888;2023-02-22T08:31:35;6.80;99.90
4050;DHT22;2039;50.894;6.888;2023-02-22T08:34:01;6.80;99.90
4050;DHT22;2039;50.894;6.888;2023-02-22T08:36:26;6.80;99.90
4050;DHT22;2039;50.894;6.888;2023-02-22T08:38:54;6.90;99.90
4050;DHT22;2039;50.894;6.888;2023-02-22T08:41:19;6.90;99.90
4050;DHT22;2039;50.894;6.888;2023-02-22T08:43:45;7.00;99.90
4050;DHT22;2039;50.894;6.888;2023-02-22T08:46:10;7.00;99.90
4050;DHT22;2039;50.894;6.888;2023-02-22T08:48:36;7.00;99.90
4050;DHT22;2039;50.894;6.888;2023-02-22T08:51:02;7.10;99.90
4050;DHT22;2039;50.894;6.888;2023-02-22T08:53:27;7.10;99.90
4050;DHT22;2039;50.894;6.888;2023-02-22T08:55:54;7.20;99.90
4050;DHT22;2039;50.894;6.888;2023-02-22T08:58:20;7.20;99.90
4050;DHT22;2039;50.894;6.888;2023-02-22T09:00:45;7.30;99.90
4050;DHT22;2039;50.894;6.888;2023-02-22T09:03:13;7.30;99.90
4050;DHT22;2039;50.894;6.888;2023-02-22T09:05:41;7.40;99.90
4050;DHT22;2039;50.894;6.888;2023-02-22T09:08:07;7.40;99.90
4050;DHT22;2039;50.894;6.888;2023-02-22T09:10:33;7.50;99.90
4050;DHT22;2039;50.894;6.888;2023-02-22T09:12:59;7.60;99.90
4050;DHT22;2039;50.894;6.888;2023-02-22T09:15:25;7.60;99.90
4050;DHT22;2039;50.894;6.888;2023-02-22T09:17:52;7.70;99.90
4050;DHT22;2039;50.894;6.888;2023-02-22T09:20:20;7.80;99.90
4050;DHT22;2039;50.894;6.888;2023-02-22T09:22:46;7.90;99.90
4050;DHT22;2039;50.894;6.888;2023-02-22T09:25:13;8.10;99.90
4050;DHT22;2039;50.894;6.888;2023-02-22T09:27:39;8.10;99.90
4050;DHT22;2039;50.894;6.888;2023-02-22T09:30:06;8.20;99.90
4050;DHT22;2039;50.894;6.888;2023-02-22T09:32:36;8.30;99.90
4050;DHT22;2039;50.894;6.888;2023-02-22T09:35:01;8.30;99.90
4050;DHT22;2039;50.894;6.888;2023-02-22T09:37:27;8.30;99.90
4050;DHT22;2039;50.894;6.888;2023-02-22T09:39:53;8.30;99.90
4050;DHT22;2039;50.894;6.888;2023-02-22T09:42:32;8.30;99.90
4050;DHT22;2039;50.894;6.888;2023-02-22T09:45:06;8.50;99.90
4050;DHT22;2039;50.894;6.888;2023-02-22T09:48:05;8.50;99.90
4050;DHT22;2039;50.894;6.888;2023-02-22T09:50:39;8.60;99.90
4050;DHT22;2039;50.894;6.888;2023-02-22T09:53:23;8.70;99.90
4050;DHT22;2039;50.894;6.888;2023-02-22T09:56:07;8.80;99.90
4050;DHT22;2039;50.894;6.888;2023-02-22T09:58:44;8.90;99.90
4050;DHT22;2039;50.894;6.888;2023-02-22T10:01:25;9.00;99.90
4050;DHT22;2039;50.894;6.888;2023-02-22T10:04:56;9.10;99.90
4050;DHT22;2039;50.894;6.888;2023-02-22T10:07:20;9.20;99.90
4050;DHT22;2039;50.894;6.888;2023-02-22T10:09:50;9.40;99.90
4050;DHT22;2039;50.894;6.888;2023-02-22T10:12:25;9.50;99.90
4050;DHT22;2039;50.894;6.888;2023-02-22T10:20:27;9.60;99.90
4050;DHT22;2039;50.894;6.888;2023-02-22T10:25:35;9.90;99.90
4050;DHT22;2039;50.894;6.888;2023-02-22T10:28:16;10.10;99.90
4050;DHT22;2039;50.894;6.888;2023-02-22T10:30:52;10.20;99.90
4050;DHT22;2039;50.894;6.888;2023-02-22T10:33:24;10.20;99.90
4050;DHT22;2039;50.894;6.888;2023-02-22T10:35:53;10.30;99.90
4050;DHT22;2039;50.894;6.888;2023-02-22T10:38:20;10.30;99.90
4050;DHT22;2039;50.894;6.888;2023-02-22T10:40:55;10.30;99.90
4050;DHT22;2039;50.894;6.888;2023-02-22T10:43:22;10.50;99.90
4050;DHT22;2039;50.894;6.888;2023-02-22T10:45:54;10.70;99.90
4050;DHT22;2039;50.894;6.888;2023-02-22T10:48:22;10.80;99.90
4050;DHT22;2039;50.894;6.888;2023-02-22T10:50:51;11.00;99.90
4050;DHT22;2039;50.894;6.888;2023-02-22T10:53:19;11.10;99.90
4050;DHT22;2039;50.894;6.888;2023-02-22T10:56:25;11.10;99.90
4050;DHT22;2039;50.894;6.888;2023-02-22T10:58:58;11.20;99.90
4050;DHT22;2039;50.894;6.888;2023-02-22T11:01:34;11.30;99.90
4050;DHT22;2039;50.894;6.888;2023-02-22T11:04:19;11.40;99.90
4050;DHT22;2039;50.894;6.888;2023-02-22T11:07:47;11.50;99.90
4050;DHT22;2039;50.894;6.888;2023-02-22T11:10:03;11.60;99.90
4050;DHT22;2039;50.894;6.888;2023-02-22T11:12:34;11.80;99.90
4050;DHT22;2039;50.894;6.888;2023-02-22T11:15:25;11.90;99.90
4050;DHT22;2039;50.894;6.888;2023-02-22T11:17:54;11.90;99.90
4050;DHT22;2039;50.894;6.888;2023-02-22T11:20:25;12.10;99.90
4050;DHT22;2039;50.894;6.888;2023-02-22T11:22:56;12.10;99.90
4050;DHT22;2039;50.894;6.888;2023-02-22T11:25:32;12.10;99.90
4050;DHT22;2039;50.894;6.888;2023-02-22T11:28:15;12.30;99.90
4050;DHT22;2039;50.894;6.888;2023-02-22T11:30:46;12.30;99.90
4050;DHT22;2039;50.894;6.888;2023-02-22T11:33:20;12.50;99.90
4050;DHT22;2039;50.894;6.888;2023-02-22T11:35:58;12.60;99.90
4050;DHT22;2039;50.894;6.888;2023-02-22T11:43:32;13.00;99.90
4050;DHT22;2039;50.894;6.888;2023-02-22T11:46:08;13.10;99.90
4050;DHT22;2039;50.894;6.888;2023-02-22T11:48:38;13.30;99.90
4050;DHT22;2039;50.894;6.888;2023-02-22T11:51:15;13.40;99.90
4050;DHT22;2039;50.894;6.888;2023-02-22T11:56:43;13.60;70.00
4050;DHT22;2039;50.894;6.888;2023-02-22T12:02:26;13.60;25.00
4050;DHT22;2039;50.894;6.888;2023-02-22T12:10:04;13.60;24.20
4050;DHT22;2039;50.894;6.888;2023-02-22T12:18:46;13.60;25.70
4050;DHT22;2039;50.894;6.888;2023-02-22T12:21:19;13.50;18.20
4050;DHT22;2039;50.894;6.888;2023-02-22T12:23:56;13.50;21.10
4050;DHT22;2039;50.894;6.888;2023-02-22T12:26:27;13.50;20.60
4050;DHT22;2039;50.894;6.888;2023-02-22T12:29:00;13.60;21.20
4050;DHT22;2039;50.894;6.888;2023-02-22T12:31:39;13.70;25.30
4050;DHT22;2039;50.894;6.888;2023-02-22T12:37:08;13.50;26.10
4050;DHT22;2039;50.894;6.888;2023-02-22T12:39:39;13.60;25.80
4050;DHT22;2039;50.894;6.888;2023-02-22T12:42:17;13.50;24.20
4050;DHT22;2039;50.894;6.888;2023-02-22T12:44:54;13.40;31.40
4050;DHT22;2039;50.894;6.888;2023-02-22T12:47:25;13.40;23.50
4050;DHT22;2039;50.894;6.888;2023-02-22T12:50:02;13.30;23.80
4050;DHT22;2039;50.894;6.888;2023-02-22T12:52:56;13.30;22.60
4050;DHT22;2039;50.894;6.888;2023-02-22T12:55:25;13.20;21.70
4050;DHT22;2039;50.894;6.888;2023-02-22T12:58:08;13.20;17.50
4050;DHT22;2039;50.894;6.888;2023-02-22T13:03:40;13.20;17.60
4050;DHT22;2039;50.894;6.888;2023-02-22T13:06:35;13.20;24.50
4050;DHT22;2039;50.894;6.888;2023-02-22T13:27:54;13.50;16.80
4050;DHT22;2039;50.894;6.888;2023-02-22T13:32:59;13.80;16.70
4050;DHT22;2039;50.894;6.888;2023-02-22T13:35:45;14.00;10.30
4050;DHT22;2039;50.894;6.888;2023-02-22T13:38:25;14.10;6.70
4050;DHT22;2039;50.894;6.888;2023-02-22T13:52:23;14.30;4.60
4050;DHT22;2039;50.894;6.888;2023-02-22T13:55:03;14.40;1.00
4050;DHT22;2039;50.894;6.888;2023-02-22T13:57:45;14.30;1.00
4050;DHT22;2039;50.894;6.888;2023-02-22T14:11:03;14.20;1.00
4050;DHT22;2039;50.894;6.888;2023-02-22T14:13:32;14.20;1.00
4050;DHT22;2039;50.894;6.888;2023-02-22T14:16:22;14.20;1.00
4050;DHT22;2039;50.894;6.888;2023-02-22T14:18:59;14.20;4.50
4050;DHT22;2039;50.894;6.888;2023-02-22T14:21:26;14.30;1.00
4050;DHT22;2039;50.894;6.888;2023-02-22T14:23:53;14.30;2.60
4050;DHT22;2039;50.894;6.888;2023-02-22T14:26:31;14.40;4.90
4050;DHT22;2039;50.894;6.888;2023-02-22T14:37:02;14.50;1.00
4050;DHT22;2039;50.894;6.888;2023-02-22T14:42:09;14.60;1.00
4050;DHT22;2039;50.894;6.888;2023-02-22T14:47:16;14.70;1.00
4050;DHT22;2039;50.894;6.888;2023-02-22T14:49:46;14.70;1.00
4050;DHT22;2039;50.894;6.888;2023-02-22T14:52:23;14.70;1.00
4050;DHT22;2039;50.894;6.888;2023-02-22T14:54:57;14.70;1.00
4050;DHT22;2039;50.894;6.888;2023-02-22T15:00:42;14.70;1.00
4050;DHT22;2039;50.894;6.888;2023-02-22T15:03:26;14.60;1.00
4050;DHT22;2039;50.894;6.888;2023-02-22T15:06:06;14.70;1.00
4050;DHT22;2039;50.894;6.888;2023-02-22T15:08:32;14.60;1.00
4050;DHT22;2039;50.894;6.888;2023-02-22T15:10:59;14.60;1.00
4050;DHT22;2039;50.894;6.888;2023-02-22T15:13:28;14.70;1.10
4050;DHT22;2039;50.894;6.888;2023-02-22T15:16:03;14.60;1.00
4050;DHT22;2039;50.894;6.888;2023-02-22T15:18:35;14.50;1.00
4050;DHT22;2039;50.894;6.888;2023-02-22T15:21:09;14.50;2.60
4050;DHT22;2039;50.894;6.888;2023-02-22T15:29:12;14.40;8.60
4050;DHT22;2039;50.894;6.888;2023-02-22T15:31:39;14.40;6.30
4050;DHT22;2039;50.894;6.888;2023-02-22T15:34:17;14.50;6.80
4050;DHT22;2039;50.894;6.888;2023-02-22T15:36:47;14.50;5.70
4050;DHT22;2039;50.894;6.888;2023-02-22T15:39:28;14.50;7.00
4050;DHT22;2039;50.894;6.888;2023-02-22T15:44:27;14.40;10.90
4050;DHT22;2039;50.894;6.888;2023-02-22T15:46:53;14.40;8.00
4050;DHT22;2039;50.894;6.888;2023-02-22T15:49:22;14.40;9.70
4050;DHT22;2039;50.894;6.888;2023-02-22T15:51:59;14.30;13.10
4050;DHT22;2039;50.894;6.888;2023-02-22T15:54:29;14.20;15.50
4050;DHT22;2039;50.894;6.888;2023-02-22T15:57:04;14.20;13.90
4050;DHT22;2039;50.894;6.888;2023-02-22T15:59:30;14.20;12.60
4050;DHT22;2039;50.894;6.888;2023-02-22T16:01:59;14.20;11.70
4050;DHT22;2039;50.894;6.888;2023-02-22T16:04:27;14.20;8.90
4050;DHT22;2039;50.894;6.888;2023-02-22T16:07:06;14.10;13.20
4050;DHT22;2039;50.894;6.888;2023-02-22T16:09:48;14.10;11.70
4050;DHT22;2039;50.894;6.888;2023-02-22T16:14:49;14.10;16.80
4050;DHT22;2039;50.894;6.888;2023-02-22T16:17:33;14.00;23.20
4050;DHT22;2039;50.894;6.888;2023-02-22T16:20:29;14.00;26.10
4050;DHT22;2039;50.894;6.888;2023-02-22T16:22:49;13.80;31.00
4050;DHT22;2039;50.894;6.888;2023-02-22T16:32:46;13.80;36.10
4050;DHT22;2039;50.894;6.888;2023-02-22T16:35:13;13.80;37.60
4050;DHT22;2039;50.894;6.888;2023-02-22T16:43:06;13.50;49.70
4050;DHT22;2039;50.894;6.888;2023-02-22T16:45:33;13.50;53.70
4050;DHT22;2039;50.894;6.888;2023-02-22T16:48:00;13.40;54.70
4050;DHT22;2039;50.894;6.888;2023-02-22T16:50:29;13.30;56.70
4050;DHT22;2039;50.894;6.888;2023-02-22T16:52:55;13.30;55.80
4050;DHT22;2039;50.894;6.888;2023-02-22T16:55:28;13.20;61.60
4050;DHT22;2039;50.894;6.888;2023-02-22T16:58:01;13.20;67.50
4050;DHT22;2039;50.894;6.888;2023-02-22T17:00:27;13.10;69.00
4050;DHT22;2039;50.894;6.888;2023-02-22T17:02:57;13.00;78.10
4050;DHT22;2039;50.894;6.888;2023-02-22T17:05:23;13.00;78.80
4050;DHT22;2039;50.894;6.888;2023-02-22T17:07:49;13.00;76.70
4050;DHT22;2039;50.894;6.888;2023-02-22T17:10:16;13.00;70.70
4050;DHT22;2039;50.894;6.888;2023-02-22T17:12:45;13.00;77.80
4050;DHT22;2039;50.894;6.888;2023-02-22T17:15:32;13.00;70.40
4050;DHT22;2039;50.894;6.888;2023-02-22T17:18:00;13.00;66.40
4050;DHT22;2039;50.894;6.888;2023-02-22T17:20:30;12.90;71.80
4050;DHT22;2039;50.894;6.888;2023-02-22T17:27:58;12.70;93.70
4050;DHT22;2039;50.894;6.888;2023-02-22T17:30:24;12.60;96.10
4050;DHT22;2039;50.894;6.888;2023-02-22T17:32:51;12.60;98.20
4050;DHT22;2039;50.894;6.888;2023-02-22T17:35:20;12.50;99.70
4050;DHT22;2039;50.894;6.888;2023-02-22T17:37:48;12.50;99.90
4050;DHT22;2039;50.894;6.888;2023-02-22T17:40:15;12.40;99.90
4050;DHT22;2039;50.894;6.888;2023-02-22T17:42:42;12.40;99.90
4050;DHT22;2039;50.894;6.888;2023-02-22T17:45:09;12.40;99.90
4050;DHT22;2039;50.894;6.888;2023-02-22T17:47:36;12.40;99.90
4050;DHT22;2039;50.894;6.888;2023-02-22T17:50:12;12.40;99.90
4050;DHT22;2039;50.894;6.888;2023-02-22T17:52:46;12.30;99.90
4050;DHT22;2039;50.894;6.888;2023-02-22T17:55:29;12.40;99.90
4050;DHT22;2039;50.894;6.888;2023-02-22T17:57:56;12.30;99.90
4050;DHT22;2039;50.894;6.888;2023-02-22T18:00:25;12.30;99.90
4050;DHT22;2039;50.894;6.888;2023-02-22T18:03:02;12.30;98.60
4050;DHT22;2039;50.894;6.888;2023-02-22T18:05:29;12.40;97.40
4050;DHT22;2039;50.894;6.888;2023-02-22T18:08:00;12.40;97.30
4050;DHT22;2039;50.894;6.888;2023-02-22T18:10:35;12.30;98.00
4050;DHT22;2039;50.894;6.888;2023-02-22T18:13:04;12.30;98.50
4050;DHT22;2039;50.894;6.888;2023-02-22T18:15:32;12.30;99.00
4050;DHT22;2039;50.894;6.888;2023-02-22T18:18:02;12.30;98.90
4050;DHT22;2039;50.894;6.888;2023-02-22T18:20:30;12.40;96.60
4050;DHT22;2039;50.894;6.888;2023-02-22T18:23:04;12.50;93.10
4050;DHT22;2039;50.894;6.888;2023-02-22T18:25:35;12.50;94.00
4050;DHT22;2039;50.894;6.888;2023-02-22T18:28:05;12.60;95.50
4050;DHT22;2039;50.894;6.888;2023-02-22T18:30:33;12.50;99.10
4050;DHT22;2039;50.894;6.888;2023-02-22T18:33:02;12.50;99.90
4050;DHT22;2039;50.894;6.888;2023-02-22T18:35:31;12.50;99.90
4050;DHT22;2039;50.894;6.888;2023-02-22T18:37:59;12.40;99.90
4050;DHT22;2039;50.894;6.888;2023-02-22T18:40:25;12.40;99.90
4050;DHT22;2039;50.894;6.888;2023-02-22T18:42:51;12.30;99.90
4050;DHT22;2039;50.894;6.888;2023-02-22T18:45:17;12.30;99.90
4050;DHT22;2039;50.894;6.888;2023-02-22T18:47:43;12.30;99.90
4050;DHT22;2039;50.894;6.888;2023-02-22T18:50:10;12.40;99.90
4050;DHT22;2039;50.894;6.888;2023-02-22T18:52:42;12.40;99.90
4050;DHT22;2039;50.894;6.888;2023-02-22T18:55:15;12.40;99.90
4050;DHT22;2039;50.894;6.888;2023-02-22T18:57:42;12.30;99.90
4050;DHT22;2039;50.894;6.888;2023-02-22T19:00:15;12.30;99.90
4050;DHT22;2039;50.894;6.888;2023-02-22T19:02:41;12.30;99.90
4050;DHT22;2039;50.894;6.888;2023-02-22T19:05:13;12.30;99.90
4050;DHT22;2039;50.894;6.888;2023-02-22T19:07:42;12.30;99.90
4050;DHT22;2039;50.894;6.888;2023-02-22T19:10:15;12.30;99.90
4050;DHT22;2039;50.894;6.888;2023-02-22T19:12:41;12.20;99.90
4050;DHT22;2039;50.894;6.888;2023-02-22T19:15:16;12.20;99.90
4050;DHT22;2039;50.894;6.888;2023-02-22T19:20:42;12.10;99.90
4050;DHT22;2039;50.894;6.888;2023-02-22T19:23:53;12.10;99.90
4050;DHT22;2039;50.894;6.888;2023-02-22T19:26:23;12.10;99.90
4050;DHT22;2039;50.894;6.888;2023-02-22T19:28:51;12.10;99.90
4050;DHT22;2039;50.894;6.888;2023-02-22T19:31:26;12.10;99.90
4050;DHT22;2039;50.894;6.888;2023-02-22T19:34:03;12.10;99.90
4050;DHT22;2039;50.894;6.888;2023-02-22T19:36:35;12.00;99.90
4050;DHT22;2039;50.894;6.888;2023-02-22T19:39:07;11.90;99.90
4050;DHT22;2039;50.894;6.888;2023-02-22T19:41:36;11.90;99.90
4050;DHT22;2039;50.894;6.888;2023-02-22T19:44:05;12.00;99.90
4050;DHT22;2039;50.894;6.888;2023-02-22T19:46:35;11.90;99.90
4050;DHT22;2039;50.894;6.888;2023-02-22T19:49:05;11.90;99.90
4050;DHT22;2039;50.894;6.888;2023-02-22T19:51:35;11.90;99.90
4050;DHT22;2039;50.894;6.888;2023-02-22T19:54:04;11.80;99.90
4050;DHT22;2039;50.894;6.888;2023-02-22T19:56:33;11.90;99.90
4050;DHT22;2039;50.894;6.888;2023-02-22T20:01:43;11.90;99.90
4050;DHT22;2039;50.894;6.888;2023-02-22T20:04:12;11.80;99.90
4050;DHT22;2039;50.894;6.888;2023-02-22T20:06:46;11.80;99.90
4050;DHT22;2039;50.894;6.888;2023-02-22T20:09:32;11.80;99.90
4050;DHT22;2039;50.894;6.888;2023-02-22T20:12:02;11.80;99.90
4050;DHT22;2039;50.894;6.888;2023-02-22T20:14:27;11.80;99.90
4050;DHT22;2039;50.894;6.888;2023-02-22T20:16:56;11.70;99.90
4050;DHT22;2039;50.894;6.888;2023-02-22T20:19:23;11.80;99.90
4050;DHT22;2039;50.894;6.888;2023-02-22T20:21:49;11.80;99.90
4050;DHT22;2039;50.894;6.888;2023-02-22T20:24:14;11.70;99.90
4050;DHT22;2039;50.894;6.888;2023-02-22T20:26:43;11.60;99.90
4050;DHT22;2039;50.894;6.888;2023-02-22T20:29:15;11.60;99.90
4050;DHT22;2039;50.894;6.888;2023-02-22T20:31:51;11.70;99.90
4050;DHT22;2039;50.894;6.888;2023-02-22T20:34:28;11.70;99.90
4050;DHT22;2039;50.894;6.888;2023-02-22T20:36:59;11.60;99.90
4050;DHT22;2039;50.894;6.888;2023-02-22T20:39:25;11.60;99.90
4050;DHT22;2039;50.894;6.888;2023-02-22T20:41:51;11.60;99.90
4050;DHT22;2039;50.894;6.888;2023-02-22T20:44:19;11.50;99.90
4050;DHT22;2039;50.894;6.888;2023-02-22T20:46:46;11.60;99.90
4050;DHT22;2039;50.894;6.888;2023-02-22T20:49:16;11.60;99.90
4050;DHT22;2039;50.894;6.888;2023-02-22T20:51:44;11.50;99.90
4050;DHT22;2039;50.894;6.888;2023-02-22T20:54:10;11.50;99.90
4050;DHT22;2039;50.894;6.888;2023-02-22T20:56:39;11.50;99.90
4050;DHT22;2039;50.894;6.888;2023-02-22T20:59:07;11.50;99.90
4050;DHT22;2039;50.894;6.888;2023-02-22T21:01:33;11.50;99.90
4050;DHT22;2039;50.894;6.888;2023-02-22T21:04:04;11.50;99.90